Arock, OR

6:39 AM MDT on October 22, 2014 (GMT -0600)
Rome State | Change Station
CLOSE
Current Station
Airport
Location: Rome,
Elevation: 4049 ft
Nearby Weather Stations

Elev 4049 ft 42.59 °N, 117.86 °W | Updated 47 minutes ago

Clear
Clear
41 °F
Feels Like 35 °F
N
10
Wind Variable Wind from SSE
Gusts 8 mph

Today
High -- | Low -- °F
--% Chance of Precip.
Yesterday
High -- | Low -- °F
Precip. -- in
8:11 AM 6:56 PM
Waning Crescent, 2% visible
Pressure 30.06 in
Visibility -9999.0 miles
Clouds
Windchill 35 °F
Dew Point 29 °F
Humidity 62%
Rainfall 0.00 in
Snow Depth Not available.
UV Not available.
Pollen 3.90 out of 12
Air Quality Not available.
Flu Activity Sporadic
METAR KREO 221152Z AUTO 15009KT 05/M02 A3007 RMK AO1 SLP179 70011 T00501017 10067 20011 53001

More Conditions Fewer Conditions

Pressure 30.06 in
Visibility -9999.0 miles
Clouds
Windchill 35 °F
Dew Point 29 °F
Humidity 62%
Rainfall 0.00 in
Snow Depth Not available.
UV Not available.
Pollen 3.90 out of 12
Air Quality Not available.
Flu Activity Sporadic
METAR KREO 221152Z AUTO 15009KT 05/M02 A3007 RMK AO1 SLP179 70011 T00501017 10067 20011 53001

More Conditions Fewer Conditions

10-Day Weather Forecast

Almanac

Astronomy

Oct. 22, 2014 Rise Set
Actual Time 8:11 AM MDT 6:56 PM MDT
Civil Twilight 7:43 AM MDT 7:25 PM MDT
Nautical Twilight 7:09 AM MDT 7:58 PM MDT
Astronomical Twilight 6:37 AM MDT 8:30 PM MDT
Moon 6:56 AM MDT 6:26 PM MDT
Length of Visible Light 11h 42m
Length of Day
10h 44m
Tomorrow will be 2m 44s shorter.
Waning Crescent, 2% of the Moon is Illuminated
Today
Waning Crescent
Oct 23
New
Oct 30
First Quarter
Nov 6
Full
Nov 14
Last Quarter

Today's Extremes

State Highs State Lows

Community

WunderPhotos

Upload Photos

1,763,907 photos uploaded!

Nearby

Snow Depth

Station Depth Elevation
Fish Creek 0 in 7900 ft
Lake Creek R.S. 0 in 5200 ft
Blue Mountain Spring 0 in 5900 ft
Starr Ridge 0 in 5300 ft
Snow Mountain 0 in 6220 ft

Earthquake Activity

City Distance Mag. Time & Date
No recent earthquake activity has been reported nearby.
Minimum magnitude displayed is 2.5.

Coastal Water Temperatures

Place Temperature
No Stations Reporting

Nearby Weather Stations